createdAt,value
2019-02-22T00:01:54.561Z,76.45
2019-02-22T00:04:23.905Z,76.70
2019-02-22T00:06:53.267Z,76.43
2019-02-22T00:09:22.461Z,76.85
2019-02-22T00:11:51.781Z,76.62
2019-02-22T00:14:20.961Z,76.47
2019-02-22T00:16:50.173Z,76.40
2019-02-22T00:19:19.381Z,76.41
2019-02-22T00:21:48.546Z,76.61
2019-02-22T00:24:17.741Z,76.41
2019-02-22T00:26:47.326Z,76.47
2019-02-22T00:29:16.520Z,76.46
2019-02-22T00:31:45.702Z,76.07
2019-02-22T00:34:14.910Z,76.20
2019-02-22T00:36:44.213Z,76.05
2019-02-22T00:39:13.478Z,76.42
2019-02-22T00:41:42.677Z,75.98
2019-02-22T00:44:11.808Z,76.18
2019-02-22T00:46:40.985Z,75.79
2019-02-22T00:49:10.184Z,75.68
2019-02-22T00:51:39.398Z,75.49
2019-02-22T00:54:08.577Z,75.51
2019-02-22T00:56:37.905Z,75.65
2019-02-22T00:59:07.029Z,75.71
2019-02-22T01:01:36.209Z,75.82
2019-02-22T01:04:05.400Z,75.11
2019-02-22T01:06:34.551Z,75.27
2019-02-22T01:09:04.495Z,75.07
2019-02-22T01:11:33.657Z,75.12
2019-02-22T01:14:02.831Z,75.10
2019-02-22T01:16:31.983Z,75.10
2019-02-22T01:19:01.183Z,75.16
2019-02-22T01:21:30.379Z,75.13
2019-02-22T01:23:59.513Z,75.30
2019-02-22T01:26:28.656Z,75.60
2019-02-22T01:28:57.887Z,75.34
2019-02-22T01:31:27.005Z,75.36
2019-02-22T01:33:56.189Z,75.26
2019-02-22T01:36:25.782Z,75.20
2019-02-22T01:38:54.998Z,75.05
2019-02-22T01:41:24.204Z,74.93
2019-02-22T01:43:53.342Z,74.82
2019-02-22T01:46:22.529Z,74.85
2019-02-22T01:48:51.662Z,75.02
2019-02-22T01:51:20.812Z,74.87
2019-02-22T01:53:49.966Z,74.91
2019-02-22T01:56:19.102Z,75.10
2019-02-22T01:58:49.105Z,74.91
2019-02-22T02:01:18.374Z,74.79
2019-02-22T02:03:47.525Z,74.72
2019-02-22T02:06:16.705Z,74.93
2019-02-22T02:08:45.898Z,74.69
2019-02-22T02:11:15.041Z,74.62
2019-02-22T02:13:44.241Z,74.64
2019-02-22T02:16:13.399Z,74.60
2019-02-22T02:18:42.551Z,74.76
2019-02-22T02:21:11.685Z,74.75
2019-02-22T02:23:40.839Z,74.69
2019-02-22T02:26:10.057Z,74.70
2019-02-22T02:28:39.208Z,75.00
2019-02-22T02:31:08.346Z,75.13
2019-02-22T02:33:37.494Z,75.15
2019-02-22T02:36:06.642Z,75.14
2019-02-22T02:38:35.808Z,75.25
2019-02-22T02:41:10.851Z,75.53
2019-02-22T02:43:35.866Z,75.66
2019-02-22T02:46:05.077Z,75.69
2019-02-22T02:48:34.203Z,75.46
2019-02-22T02:51:03.378Z,75.20
2019-02-22T02:53:32.554Z,75.12
2019-02-22T02:56:01.747Z,75.20
2019-02-22T02:58:30.904Z,75.10
2019-02-22T03:01:00.036Z,74.99
2019-02-22T03:03:29.296Z,75.18
2019-02-22T03:06:12.662Z,75.24
2019-02-22T03:08:41.810Z,75.16
2019-02-22T03:11:20.342Z,74.87
2019-02-22T03:13:41.867Z,74.97
2019-02-22T03:16:10.987Z,74.97
2019-02-22T03:18:40.137Z,74.99
2019-02-22T03:21:09.285Z,75.03
2019-02-22T03:23:38.491Z,74.90
2019-02-22T03:26:07.628Z,74.98
2019-02-22T03:28:36.827Z,74.88
2019-02-22T03:31:05.944Z,74.91
2019-02-22T03:33:35.080Z,74.98
2019-02-22T03:36:04.270Z,75.11
2019-02-22T03:38:33.399Z,75.04
2019-02-22T03:41:02.624Z,74.88
2019-02-22T03:43:31.803Z,75.08
2019-02-22T03:46:00.922Z,75.10
2019-02-22T03:48:30.116Z,75.22
2019-02-22T03:50:59.268Z,75.34
2019-02-22T03:53:35.025Z,75.37
2019-02-22T03:56:04.282Z,75.31
2019-02-22T03:58:33.562Z,75.35
2019-02-22T04:01:02.680Z,75.45
2019-02-22T04:03:31.804Z,75.34
2019-02-22T04:06:00.970Z,75.53
2019-02-22T04:08:30.127Z,75.42
2019-02-22T04:10:59.271Z,75.24
2019-02-22T04:13:28.430Z,75.40
2019-02-22T04:15:57.591Z,75.50
2019-02-22T04:18:26.864Z,75.46
2019-02-22T04:20:56.031Z,75.43
2019-02-22T04:23:25.141Z,75.21
2019-02-22T04:25:54.313Z,75.18
2019-02-22T04:28:23.514Z,75.24
2019-02-22T04:30:52.680Z,75.32
2019-02-22T04:33:21.848Z,75.14
2019-02-22T04:35:51.071Z,74.98
2019-02-22T04:38:20.194Z,74.94
2019-02-22T04:40:49.438Z,74.91
2019-02-22T04:43:18.608Z,75.08
2019-02-22T04:45:47.771Z,75.06
2019-02-22T04:48:19.987Z,75.13
2019-02-22T04:50:49.126Z,75.32
2019-02-22T04:53:18.256Z,75.27
2019-02-22T04:55:47.471Z,75.26
2019-02-22T04:58:16.626Z,75.32
2019-02-22T05:00:45.772Z,75.13
2019-02-22T05:03:14.942Z,75.11
2019-02-22T05:05:44.116Z,75.17
2019-02-22T05:08:13.265Z,75.17
2019-02-22T05:10:42.396Z,75.15
2019-02-22T05:13:11.587Z,75.08
2019-02-22T05:15:40.842Z,75.05
2019-02-22T05:18:10.084Z,75.37
2019-02-22T05:20:39.334Z,75.04
2019-02-22T05:23:08.507Z,75.11
2019-02-22T05:25:37.673Z,75.20
2019-02-22T05:28:06.880Z,75.32
2019-02-22T05:30:36.637Z,75.55
2019-02-22T05:33:05.821Z,75.44
2019-02-22T05:35:35.017Z,75.42
2019-02-22T05:38:04.161Z,75.44
2019-02-22T05:40:33.317Z,75.59
2019-02-22T05:43:02.473Z,75.51
2019-02-22T05:45:31.634Z,75.47
2019-02-22T05:48:00.779Z,75.66
2019-02-22T05:50:29.947Z,75.56
2019-02-22T05:52:59.146Z,75.61
2019-02-22T05:55:30.344Z,75.86
2019-02-22T05:57:59.477Z,75.90
2019-02-22T06:00:28.711Z,75.92
2019-02-22T06:02:57.836Z,75.92
2019-02-22T06:05:27.083Z,75.77
2019-02-22T06:07:56.269Z,75.79
2019-02-22T06:10:25.409Z,75.90
2019-02-22T06:12:54.571Z,75.98
2019-02-22T06:15:23.742Z,76.18
2019-02-22T06:17:52.936Z,76.15
2019-02-22T06:20:22.082Z,76.27
2019-02-22T06:22:51.222Z,76.35
2019-02-22T06:25:20.384Z,76.03
2019-02-22T06:27:49.591Z,75.96
2019-02-22T06:30:18.724Z,76.04
2019-02-22T06:32:48.025Z,76.16
2019-02-22T06:35:17.204Z,76.20
2019-02-22T06:37:46.363Z,76.23
2019-02-22T06:40:15.511Z,76.14
2019-02-22T06:42:46.074Z,76.08
2019-02-22T06:45:15.656Z,75.96
2019-02-22T06:47:44.832Z,76.13
2019-02-22T06:50:13.958Z,76.20
2019-02-22T06:52:43.123Z,76.23
2019-02-22T06:55:12.266Z,76.24
2019-02-22T06:57:41.431Z,76.29
2019-02-22T07:00:11.890Z,76.27
2019-02-22T07:02:41.025Z,76.18
2019-02-22T07:05:10.201Z,75.92
2019-02-22T07:07:39.366Z,75.98
2019-02-22T07:10:09.318Z,75.75
2019-02-22T07:12:56.535Z,75.90
2019-02-22T07:15:18.932Z,75.90
2019-02-22T07:17:48.069Z,75.90
2019-02-22T07:20:17.224Z,76.13
2019-02-22T07:22:46.419Z,76.16
2019-02-22T07:25:15.613Z,75.86
2019-02-22T07:27:44.796Z,75.78
2019-02-22T07:30:13.951Z,76.14
2019-02-22T07:32:43.166Z,76.30
2019-02-22T07:35:14.305Z,75.64
2019-02-22T07:37:43.176Z,75.85
2019-02-22T07:40:12.326Z,75.97
2019-02-22T07:42:41.501Z,76.19
2019-02-22T07:45:11.778Z,76.20
2019-02-22T07:47:40.965Z,76.23
2019-02-22T07:50:11.536Z,76.49
2019-02-22T07:52:40.692Z,76.59
2019-02-22T07:55:10.650Z,76.57
2019-02-22T07:57:40.349Z,76.82
2019-02-22T08:00:12.393Z,76.99
2019-02-22T08:02:41.611Z,76.95
2019-02-22T08:05:10.751Z,76.97
2019-02-22T08:07:39.967Z,76.85
2019-02-22T08:10:09.125Z,76.70
2019-02-22T08:12:38.385Z,76.85
2019-02-22T08:15:08.617Z,76.70
2019-02-22T08:17:37.839Z,77.20
2019-02-22T08:20:07.329Z,77.38
2019-02-22T08:22:36.457Z,77.19
2019-02-22T08:25:05.607Z,77.17
2019-02-22T08:27:34.876Z,77.23
2019-02-22T08:30:04.452Z,77.41
2019-02-22T08:32:33.636Z,77.51
2019-02-22T08:35:02.764Z,77.35
2019-02-22T08:37:31.910Z,77.18
2019-02-22T08:40:02.267Z,77.16
2019-02-22T08:42:31.901Z,77.11
2019-02-22T08:45:01.076Z,77.07
2019-02-22T08:47:30.232Z,77.11
2019-02-22T08:49:59.356Z,76.96
2019-02-22T08:52:28.544Z,77.15
2019-02-22T08:54:57.686Z,77.02
2019-02-22T08:57:26.875Z,76.98
2019-02-22T08:59:56.042Z,76.93
2019-02-22T09:02:25.203Z,76.85
2019-02-22T09:04:54.373Z,76.71
2019-02-22T09:07:23.526Z,76.53
2019-02-22T09:09:52.662Z,76.00
2019-02-22T09:12:21.853Z,75.87
2019-02-22T09:14:51.023Z,75.54
2019-02-22T09:17:20.179Z,75.39
2019-02-22T09:19:49.341Z,75.04
2019-02-22T09:22:22.871Z,74.84
2019-02-22T09:24:49.387Z,74.68
2019-02-22T09:27:18.527Z,74.36
2019-02-22T09:29:58.163Z,74.17
2019-02-22T09:32:18.554Z,73.70
2019-02-22T09:34:48.118Z,72.94
2019-02-22T09:37:17.291Z,72.19
2019-02-22T09:39:46.479Z,71.99
2019-02-22T09:42:15.630Z,71.80
2019-02-22T09:44:44.798Z,71.94
2019-02-22T09:47:13.994Z,71.96
2019-02-22T09:49:43.184Z,71.67
2019-02-22T09:52:12.356Z,71.50
2019-02-22T09:54:41.502Z,71.56
2019-02-22T09:57:10.682Z,69.66
2019-02-22T09:59:39.836Z,68.89
2019-02-22T10:02:09.012Z,69.09
2019-02-22T10:04:38.217Z,69.57
2019-02-22T10:07:07.391Z,69.90
2019-02-22T10:09:36.585Z,69.70
2019-02-22T10:12:05.763Z,70.09
2019-02-22T10:14:35.026Z,70.27
2019-02-22T10:17:04.188Z,70.20
2019-02-22T10:19:33.357Z,70.07
2019-02-22T10:22:02.520Z,70.33
2019-02-22T10:24:31.702Z,69.23
2019-02-22T10:27:00.847Z,69.31
2019-02-22T10:29:30.031Z,69.47
2019-02-22T10:31:59.208Z,68.68
2019-02-22T10:34:28.409Z,68.26
2019-02-22T10:36:57.524Z,69.27
2019-02-22T10:39:26.676Z,68.72
2019-02-22T10:41:55.832Z,69.25
2019-02-22T10:44:25.037Z,69.38
2019-02-22T10:46:54.183Z,69.37
2019-02-22T10:49:23.372Z,69.12
2019-02-22T10:51:52.546Z,68.65
2019-02-22T10:54:21.694Z,68.14
2019-02-22T10:56:50.849Z,68.55
2019-02-22T10:59:20.038Z,67.76
2019-02-22T11:01:49.180Z,68.10
2019-02-22T11:04:18.316Z,68.44
2019-02-22T11:06:47.482Z,68.55
2019-02-22T11:09:17.916Z,68.48
2019-02-22T11:11:47.131Z,68.42
2019-02-22T11:14:16.307Z,68.51
2019-02-22T11:16:45.587Z,68.60
2019-02-22T11:19:14.726Z,68.71
2019-02-22T11:21:43.901Z,68.65
2019-02-22T11:24:13.093Z,68.54
2019-02-22T11:26:42.229Z,67.32
2019-02-22T11:29:11.365Z,67.60
2019-02-22T11:31:40.536Z,68.11
2019-02-22T11:34:09.697Z,67.97
2019-02-22T11:36:38.931Z,67.13
2019-02-22T11:39:08.241Z,67.34
2019-02-22T11:41:37.407Z,67.59
2019-02-22T11:44:06.555Z,67.72
2019-02-22T11:46:35.726Z,67.82
2019-02-22T11:49:04.902Z,67.66
2019-02-22T11:51:34.086Z,67.54
2019-02-22T11:54:03.253Z,67.42
2019-02-22T11:56:32.398Z,66.98
2019-02-22T11:59:01.532Z,67.50
2019-02-22T12:01:30.702Z,67.98
2019-02-22T12:03:59.942Z,68.18
2019-02-22T12:06:29.053Z,68.26
2019-02-22T12:08:58.205Z,68.25
2019-02-22T12:11:27.416Z,68.23
2019-02-22T12:13:56.562Z,67.73
2019-02-22T12:16:25.747Z,67.67
2019-02-22T12:18:54.887Z,68.01
2019-02-22T12:21:24.078Z,68.10
2019-02-22T12:23:53.298Z,67.98
2019-02-22T12:26:22.437Z,66.61
2019-02-22T12:28:51.622Z,67.12
2019-02-22T12:31:20.770Z,66.94
2019-02-22T12:33:49.970Z,66.13
2019-02-22T12:36:19.075Z,66.51
2019-02-22T12:38:48.259Z,67.11
2019-02-22T12:41:17.425Z,66.82
2019-02-22T12:43:46.630Z,66.52
2019-02-22T12:46:15.835Z,66.74
2019-02-22T12:48:45.250Z,66.89
2019-02-22T12:51:14.460Z,67.03
2019-02-22T12:53:44.047Z,66.83
2019-02-22T12:56:13.256Z,66.54
2019-02-22T12:58:42.894Z,65.45
2019-02-22T13:01:12.100Z,65.86
2019-02-22T13:03:41.274Z,65.72
2019-02-22T13:06:10.434Z,65.63
2019-02-22T13:08:39.597Z,66.31
2019-02-22T13:11:08.756Z,66.06
2019-02-22T13:13:37.928Z,66.44
2019-02-22T13:16:07.089Z,67.48
2019-02-22T13:18:36.284Z,68.22
2019-02-22T13:21:05.468Z,68.80
2019-02-22T13:23:34.649Z,68.83
2019-02-22T13:26:03.813Z,68.57
2019-02-22T13:28:35.370Z,68.58
2019-02-22T13:31:04.506Z,68.69
2019-02-22T13:33:33.656Z,68.89
2019-02-22T13:36:02.908Z,68.41
2019-02-22T13:38:32.046Z,68.09
2019-02-22T13:41:01.191Z,68.45
2019-02-22T13:43:30.355Z,69.22
2019-02-22T13:45:59.563Z,68.93
2019-02-22T13:48:28.715Z,69.64
2019-02-22T13:50:57.891Z,69.20
2019-02-22T13:53:27.044Z,68.83
2019-02-22T13:55:56.185Z,69.31
2019-02-22T13:58:25.395Z,69.16
2019-02-22T14:00:54.600Z,69.23
2019-02-22T14:03:23.885Z,69.85
2019-02-22T14:05:53.040Z,70.06
2019-02-22T14:08:22.225Z,70.02
2019-02-22T14:10:51.412Z,70.64
2019-02-22T14:13:20.618Z,71.34
2019-02-22T14:15:49.787Z,71.58
2019-02-22T14:18:18.998Z,71.42
2019-02-22T14:20:48.622Z,71.15
2019-02-22T14:23:17.955Z,71.11
2019-02-22T14:25:47.182Z,70.14
2019-02-22T14:28:16.345Z,69.81
2019-02-22T14:30:45.548Z,70.09
2019-02-22T14:33:14.687Z,70.37
2019-02-22T14:35:43.970Z,69.96
2019-02-22T14:38:13.274Z,70.04
2019-02-22T14:40:42.708Z,69.84
2019-02-22T14:43:16.472Z,69.97
2019-02-22T14:45:49.611Z,69.90
2019-02-22T14:48:13.653Z,69.79
2019-02-22T14:50:42.826Z,69.44
2019-02-22T14:53:19.475Z,69.24
2019-02-22T14:55:42.887Z,69.40
2019-02-22T14:58:12.129Z,69.70
2019-02-22T15:00:41.297Z,68.95
2019-02-22T15:03:10.473Z,69.19
2019-02-22T15:05:39.655Z,69.14
2019-02-22T15:08:08.814Z,68.88
2019-02-22T15:10:38.015Z,69.26
2019-02-22T15:13:07.161Z,69.96
2019-02-22T15:16:00.874Z,70.01
2019-02-22T15:18:26.257Z,70.61
2019-02-22T15:20:55.420Z,70.31
2019-02-22T15:23:24.616Z,70.59
2019-02-22T15:25:53.843Z,70.62
2019-02-22T15:28:23.097Z,70.63
2019-02-22T15:30:52.357Z,70.74
2019-02-22T15:33:21.473Z,70.83
2019-02-22T15:35:50.669Z,70.64
2019-02-22T15:38:19.848Z,70.63
2019-02-22T15:40:49.090Z,70.97
2019-02-22T15:43:18.294Z,70.95
2019-02-22T15:45:47.661Z,71.36
2019-02-22T15:48:25.613Z,70.58
2019-02-22T15:50:54.840Z,71.15
2019-02-22T15:53:24.185Z,70.97
2019-02-22T15:55:53.349Z,71.40
2019-02-22T15:58:22.525Z,72.05
2019-02-22T16:00:51.777Z,72.46
2019-02-22T16:03:20.965Z,72.13
2019-02-22T16:05:50.131Z,72.25
2019-02-22T16:08:19.315Z,71.72
2019-02-22T16:10:48.611Z,71.97
2019-02-22T16:13:17.755Z,71.26
2019-02-22T16:15:47.163Z,71.51
2019-02-22T16:18:16.325Z,71.07
2019-02-22T16:20:45.541Z,71.33
2019-02-22T16:23:14.741Z,71.54
2019-02-22T16:25:43.936Z,71.60
2019-02-22T16:28:15.669Z,71.99
2019-02-22T16:30:43.987Z,72.00
2019-02-22T16:33:13.480Z,72.07
2019-02-22T16:35:42.718Z,72.14
2019-02-22T16:38:11.895Z,71.81
2019-02-22T16:40:41.080Z,71.80
2019-02-22T16:43:10.242Z,71.97
2019-02-22T16:45:39.416Z,72.02
2019-02-22T16:48:08.610Z,71.92
2019-02-22T16:50:37.801Z,71.82
2019-02-22T16:53:07.028Z,71.98
2019-02-22T16:55:36.614Z,72.13
2019-02-22T16:58:05.840Z,72.11
2019-02-22T17:00:35.051Z,71.49
2019-02-22T17:03:04.429Z,71.74
2019-02-22T17:05:33.653Z,72.29
2019-02-22T17:08:02.857Z,71.94
2019-02-22T17:10:32.233Z,71.29
2019-02-22T17:13:01.425Z,71.71
2019-02-22T17:15:30.649Z,71.22
2019-02-22T17:18:01.613Z,71.67
2019-02-22T17:20:30.843Z,71.96
2019-02-22T17:23:00.067Z,71.90
2019-02-22T17:25:31.308Z,71.83
2019-02-22T17:28:00.479Z,71.68
2019-02-22T17:30:29.653Z,71.75
2019-02-22T17:32:58.837Z,71.38
2019-02-22T17:35:28.048Z,71.26
2019-02-22T17:37:57.222Z,71.07
2019-02-22T17:40:26.552Z,70.24
2019-02-22T17:42:55.741Z,70.00
2019-02-22T17:45:25.027Z,69.95
2019-02-22T17:47:54.243Z,70.42
2019-02-22T17:50:23.540Z,70.77
2019-02-22T17:52:52.876Z,70.93
2019-02-22T17:55:22.106Z,70.79
2019-02-22T17:57:51.299Z,70.44
2019-02-22T18:00:21.347Z,70.92
2019-02-22T18:02:54.952Z,71.59
2019-02-22T18:05:24.129Z,71.78
2019-02-22T18:07:53.289Z,72.16
2019-02-22T18:10:22.496Z,71.69
2019-02-22T18:12:51.645Z,72.22
2019-02-22T18:15:20.867Z,71.84
2019-02-22T18:17:50.058Z,70.76
2019-02-22T18:20:19.308Z,71.08
2019-02-22T18:22:48.535Z,71.27
2019-02-22T18:25:17.705Z,71.45
2019-02-22T18:27:46.912Z,71.21
2019-02-22T18:30:16.392Z,70.89
2019-02-22T18:32:45.653Z,70.88
2019-02-22T18:35:14.831Z,71.52
2019-02-22T18:37:44.042Z,71.51
2019-02-22T18:40:13.783Z,71.62
2019-02-22T18:42:42.968Z,71.84
2019-02-22T18:45:12.168Z,72.42
2019-02-22T18:47:41.360Z,72.58
2019-02-22T18:50:10.993Z,72.61
2019-02-22T18:52:40.245Z,72.45
2019-02-22T18:55:09.811Z,72.46
2019-02-22T18:57:38.972Z,72.16
2019-02-22T19:00:10.584Z,72.01
2019-02-22T19:02:40.431Z,71.66
2019-02-22T19:05:10.210Z,71.41
2019-02-22T19:07:40.314Z,71.15
2019-02-22T19:10:11.145Z,71.25
2019-02-22T19:12:40.441Z,71.21
2019-02-22T19:15:11.381Z,71.46
2019-02-22T19:17:40.718Z,71.34
2019-02-22T19:20:11.947Z,71.41
2019-02-22T19:22:41.194Z,70.77
2019-02-22T19:25:10.431Z,70.60
2019-02-22T19:27:39.856Z,70.93
2019-02-22T19:30:12.059Z,70.73
2019-02-22T19:32:41.564Z,71.14
2019-02-22T19:35:11.298Z,71.57
2019-02-22T19:37:41.747Z,71.64
2019-02-22T19:40:16.035Z,71.33
2019-02-22T19:42:46.260Z,70.93
2019-02-22T19:45:16.540Z,71.49
2019-02-22T19:47:46.318Z,71.66
2019-02-22T19:50:15.643Z,71.22
2019-02-22T19:52:45.144Z,71.42
2019-02-22T19:55:15.530Z,71.33
2019-02-22T19:57:44.892Z,71.29
2019-02-22T20:00:16.091Z,71.82
2019-02-22T20:02:45.541Z,71.91
2019-02-22T20:05:14.954Z,72.08
2019-02-22T20:07:44.756Z,72.05
2019-02-22T20:10:18.108Z,72.28
2019-02-22T20:12:46.652Z,72.51
2019-02-22T20:15:16.820Z,72.15
2019-02-22T20:17:54.321Z,72.29
2019-02-22T20:20:17.432Z,72.59
2019-02-22T20:22:47.188Z,72.41
2019-02-22T20:25:16.620Z,72.43
2019-02-22T20:27:45.991Z,72.57
2019-02-22T20:30:15.758Z,72.85
2019-02-22T20:32:44.860Z,72.90
2019-02-22T20:35:16.313Z,72.89
2019-02-22T20:37:52.844Z,72.93
2019-02-22T20:40:18.035Z,72.93
2019-02-22T20:42:47.249Z,72.80
2019-02-22T20:45:16.933Z,72.92
2019-02-22T20:47:46.973Z,72.93
2019-02-22T20:50:16.279Z,73.16
2019-02-22T20:52:45.639Z,73.28
2019-02-22T20:55:14.829Z,73.59
2019-02-22T20:57:44.052Z,73.79
2019-02-22T21:00:15.839Z,73.71
2019-02-22T21:02:45.139Z,73.56
2019-02-22T21:05:14.470Z,73.41
2019-02-22T21:07:43.920Z,73.42
2019-02-22T21:10:14.867Z,73.54
2019-02-22T21:13:09.796Z,73.68
2019-02-22T21:15:56.703Z,73.25
2019-02-22T21:18:49.706Z,73.26
2019-02-22T21:21:26.078Z,73.29
2019-02-22T21:23:57.537Z,73.09
2019-02-22T21:26:26.897Z,73.13
2019-02-22T21:28:56.195Z,72.74
2019-02-22T21:31:26.710Z,72.67
2019-02-22T21:33:56.126Z,72.97
2019-02-22T21:36:25.293Z,73.08
2019-02-22T21:38:54.483Z,73.03
2019-02-22T21:41:23.622Z,72.86
2019-02-22T21:43:52.915Z,72.86
2019-02-22T21:46:22.182Z,73.29
2019-02-22T21:48:51.410Z,73.13
2019-02-22T21:51:20.735Z,73.04
2019-02-22T21:53:49.879Z,73.41
2019-02-22T21:56:19.056Z,73.36
2019-02-22T21:58:48.958Z,73.42
2019-02-22T22:01:18.325Z,73.33
2019-02-22T22:03:47.460Z,73.24
2019-02-22T22:06:16.661Z,73.47
2019-02-22T22:08:45.852Z,73.78
2019-02-22T22:11:15.034Z,73.63
2019-02-22T22:13:44.381Z,73.22
2019-02-22T22:16:13.677Z,73.60
2019-02-22T22:18:42.834Z,73.72
2019-02-22T22:21:12.062Z,73.68
2019-02-22T22:23:41.253Z,73.48
2019-02-22T22:26:11.309Z,73.45
2019-02-22T22:28:40.632Z,73.38
2019-02-22T22:31:09.790Z,73.67
2019-02-22T22:33:38.994Z,73.16
2019-02-22T22:36:08.214Z,73.23
2019-02-22T22:38:37.397Z,73.51
2019-02-22T22:41:06.585Z,73.84
2019-02-22T22:43:35.763Z,73.79
2019-02-22T22:46:05.050Z,73.89
2019-02-22T22:48:36.581Z,73.50
2019-02-22T22:51:05.955Z,73.43
2019-02-22T22:53:35.147Z,73.62
2019-02-22T22:56:04.316Z,73.89
2019-02-22T22:58:33.514Z,73.79
2019-02-22T23:01:11.861Z,73.06
2019-02-22T23:03:41.151Z,73.22
2019-02-22T23:06:11.646Z,73.18
2019-02-22T23:08:40.876Z,73.40
2019-02-22T23:11:10.132Z,73.36
2019-02-22T23:13:39.317Z,73.18
2019-02-22T23:16:08.520Z,72.88
2019-02-22T23:18:37.779Z,72.35
2019-02-22T23:21:06.948Z,72.68
2019-02-22T23:23:36.128Z,72.33
2019-02-22T23:26:05.330Z,72.86
2019-02-22T23:28:34.509Z,72.39
2019-02-22T23:31:03.711Z,72.19
2019-02-22T23:33:33.058Z,72.41
2019-02-22T23:36:02.358Z,72.82
2019-02-22T23:38:31.510Z,72.45
2019-02-22T23:41:00.752Z,72.23
2019-02-22T23:43:30.254Z,72.40
2019-02-22T23:45:59.795Z,72.09
2019-02-22T23:48:28.935Z,71.57
2019-02-22T23:50:58.335Z,70.97
2019-02-22T23:53:27.533Z,70.95
2019-02-22T23:55:56.813Z,70.02
2019-02-22T23:58:26.165Z,69.46
